ADDS METAR Data INFO
IDs: Format: Raw Decoded Include TAF

Data at: 0715 UTC 24 Jun 2018

KMKG 240655Z AUTO 28007KT 10SM OVC004 16/14 A2980 RMK AO2 SLP089 T01610144
KMKG 240555Z AUTO 28007KT 9SM OVC003 16/14 A2980 RMK AO2 SLP089 T01560144 10200 20156 53003
KMKG 240535Z AUTO 28006KT 3SM BR OVC002 16/14 A2980 RMK AO2 VIS 1 3/4 RWY 14 T01560144
KMKG 240521Z AUTO 26008KT 1 3/4SM BR OVC002 16/14 A2980 RMK AO2 T01560139
KMKG 240512Z AUTO 26008KT 3SM BR OVC002 16/14 A2980 RMK AO2 VIS 2 RWY 14 T01560144
KMKG 240502Z AUTO VRB05KT 2 1/2SM BR OVC002 16/14 A2980 RMK AO2 T01560144
KMKG 240455Z AUTO 28006KT 1 3/4SM BR OVC002 16/14 A2980 RMK AO2 SLP087 T01560144 402500156
KMKG 240453Z AUTO 27006KT 1 3/4SM BR OVC002 16/14 A2980 RMK AO2
KMKG 240440Z AUTO 29005KT 2 1/2SM BR OVC002 16/14 A2979 RMK AO2 VIS 1 3/4 RWY 14 T01560144
KMKG 240411Z AUTO 29007KT 4SM BR OVC002 16/14 A2979 RMK AO2 VIS 2 1/2 RWY 14 T01560144
KMKG 240403Z AUTO 28005KT 2 1/2SM BR OVC002 16/14 A2979 RMK AO2 T01560144
KMKG 240355Z AUTO 28007KT 1 3/4SM BR OVC002 16/14 A2979 RMK AO2 SLP085 T01560144
KMKG 240347Z AUTO 26006KT 1 1/2SM BR OVC002 16/14 A2979 RMK AO2 T01560144
KMKG 240332Z AUTO 29004KT 2SM BR OVC002 16/14 A2979 RMK AO2 VIS 1 RWY 14 T01560144
KMKG 240318Z AUTO VRB05KT 3SM BR OVC002 16/14 A2979 RMK AO2 VIS 2 RWY 14 T01610144
KMKG 240305Z AUTO 26007KT 2SM BR OVC002 16/14 A2979 RMK AO2 T01560144
KMKG 240255Z 26008KT 3/4SM R32/P6000FT BR OVC002 16/14 A2978 RMK AO2 SLP083 LAST T01560144 53013
KMKG 240155Z 27008KT 3/4SM R32/P6000FT BR OVC002 16/15 A2976 RMK AO2 SFC VIS 3 SLP077 T01610150
KMKG 240055Z 29007KT 3/4SM R32/P6000FT BR BKN003 BKN040 OVC250 17/15 A2975 RMK AO2 SFC VIS 3 SLP073 T01670150
KMKG 240051Z 28009KT 3/4SM R32/P6000FT BR BKN003 BKN040 OVC250 17/15 A2975 RMK AO2 SFC VIS 3
KMKG 240034Z 27008KT 10SM FEW004 17/15 A2975 RMK AO2 T01720150
KMKG 232355Z 25007KT 10SM FEW040 SCT250 20/16 A2974 RMK AO2 SLP068 T02000156 10239 20194 58004
KMKG 232255Z 29005KT 10SM FEW040 SCT250 20/16 A2975 RMK AO2 SLP071 T02000156
KMKG 232155Z 27008KT 10SM FEW040 SCT250 20/14 A2976 RMK AO2 SLP076 T02000139
KMKG 232055Z 28011G15KT 10SM FEW038 SCT050 SCT250 21/15 A2975 RMK AO2 SLP073 T02110150 51014
KMKG 231955Z 28009KT 10SM BKN034 OVC048 20/14 A2975 RMK AO2 SLP071 T02000144
KMKG 231855Z 30011KT 10SM BKN040 22/15 A2972 RMK AO2 SLP062 T02220150
KMKG 231755Z 27009KT 10SM BKN036 BKN250 24/16 A2971 RMK AO2 SLP057 60000 T02390156 10250 20172 55006
KMKG 231655Z VRB05KT 10SM SCT030 SCT250 24/16 A2970 RMK AO2 SLP054 T02440156
KMKG 231555Z 32007KT 10SM FEW024 FEW065 SCT250 24/15 A2971 RMK AO2 SLP059 T02390150
KMKG 231455Z 00000KT 10SM FEW021 SCT065 SCT250 21/14 A2973 RMK AO2 SLP064 60000 T02110139 58003
KMKG 231415Z 04006KT 10SM SCT022 BKN080 20/14 A2973 RMK AO2 T02000139
KMKG 231355Z 36003KT 10SM BKN020 19/13 A2975 RMK AO2 RAB06E20 SLP071 P0000 T01890133
KMKG 231255Z 33004KT 10SM OVC017 17/13 A2974 RMK AO2 RAB36E53 SLP069 P0000 T01720133
KMKG 231155Z 35003KT 10SM OVC019 18/12 A2974 RMK AO2 SLP067 T01830122 10194 20178 51013
KMKG 231055Z 03003KT 10SM BKN024 BKN060 18/12 A2972 RMK AO2 SLP062 T01830122
KMKG 231041Z 02003KT 10SM BKN024 BKN060 18/12 A2972 RMK AO2 T01780122
KMKG 230955Z 00000KT 10SM BKN060 BKN120 18/12 A2972 RMK AO2 SLP060 T01780117
KMKG 230855Z AUTO 04005KT 10SM FEW019 BKN055 18/11 A2970 RMK AO2 SLP052 T01780106 58014
KMKG 230847Z AUTO 06006KT 10SM SCT018 OVC055 18/11 A2970 RMK AO2 T01830106
KMKG 230805Z AUTO 06005KT 10SM BKN019 OVC055 18/09 A2971 RMK AO2 T01830094
KMKG 230755Z AUTO 05005KT 10SM SCT019 BKN055 OVC070 18/09 A2971 RMK AO2 SLP057 T01830094
KMKG 230655Z AUTO 05007KT 10SM BKN038 BKN070 19/09 A2972 RMK AO2 SLP061 T01890089
KMKG 230641Z AUTO 05005KT 10SM FEW024 BKN037 19/09 A2972 RMK AO2 T01890089
KMKG 230602Z AUTO 06007KT 10SM BKN029 BKN055 BKN100 19/08 A2974 RMK AO2 T01940083
KMKG 230555Z AUTO 05005KT 10SM BKN030 BKN055 OVC100 19/09 A2974 RMK AO2 SLP066 60000 T01940089 10228 20194 56007
KMKG 230455Z AUTO 04010KT 10SM OVC110 20/09 A2974 RMK AO2 SLP068 T02000089 402610156
KMKG 230355Z AUTO 04007KT 10SM OVC049 20/11 A2975 RMK AO2 RAB30E39B42E54 SLP072 P0000 T02000106
KMKG 230255Z 04006KT 10SM BKN095 BKN110 21/11 A2976 RMK AO2 RAB30E39 SLP074 LAST P0000 60000 T02060111 51007
KMKG 230155Z 06009KT 10SM BKN090 OVC120 22/11 A2975 RMK AO2 SLP072 T02170111
KMKG 230055Z 06010KT 10SM FEW080 OVC090 22/13 A2975 RMK AO2 RAB37E48 SLP071 P0000 T02220128
KMKG 222355Z 06008KT 10SM BKN095 23/14 A2974 RMK AO2 SLP067 T02280139 10261 20228 58008
KMKG 222255Z 05010KT 10SM OVC100 24/14 A2974 RMK AO2 SLP069 T02390144
KMKG 222155Z 09006KT 10SM BKN110 24/14 A2976 RMK AO2 SLP074 T02440144
KMKG 222055Z 09010KT 10SM BKN120 26/16 A2976 RMK AO2 SLP075 T02610156 56011
KMKG 221955Z 06012G17KT 10SM BKN130 26/15 A2976 RMK AO2 SLP075 T02560150